sensor_id;sensor_type;location;lat;lon;timestamp;pressure;altitude;pressure_sealevel;temperature;humidity
55757;BME280;41676;44.610;44.078;2022-11-20T00:08:08;100876.75;;;8.22;100.00
55757;BME280;41676;44.610;44.078;2022-11-20T00:13:09;100853.50;;;8.06;100.00
55757;BME280;41676;44.610;44.078;2022-11-20T00:18:22;100935.72;;;8.43;100.00
55757;BME280;41676;44.610;44.078;2022-11-20T00:23:22;100975.03;;;8.38;100.00
55757;BME280;41676;44.610;44.078;2022-11-20T00:33:55;100959.63;;;8.03;100.00
55757;BME280;41676;44.610;44.078;2022-11-20T00:45:12;100977.88;;;8.06;100.00
55757;BME280;41676;44.610;44.078;2022-11-20T00:50:12;100969.38;;;7.93;100.00
55757;BME280;41676;44.610;44.078;2022-11-20T00:55:13;100962.34;;;7.72;100.00
55757;BME280;41676;44.610;44.078;2022-11-20T01:00:15;100978.50;;;7.79;100.00
55757;BME280;41676;44.610;44.078;2022-11-20T01:05:45;100979.63;;;7.86;100.00
55757;BME280;41676;44.610;44.078;2022-11-20T01:10:46;100924.38;;;7.43;100.00
55757;BME280;41676;44.610;44.078;2022-11-20T01:22:02;100848.13;;;6.98;100.00
55757;BME280;41676;44.610;44.078;2022-11-20T01:27:03;100974.53;;;7.54;100.00
55757;BME280;41676;44.610;44.078;2022-11-20T01:32:04;100975.09;;;7.58;100.00
55757;BME280;41676;44.610;44.078;2022-11-20T01:37:05;100931.78;;;7.18;100.00
55757;BME280;41676;44.610;44.078;2022-11-20T01:42:07;100980.94;;;7.30;100.00
55757;BME280;41676;44.610;44.078;2022-11-20T01:47:35;101004.88;;;7.39;100.00
55757;BME280;41676;44.610;44.078;2022-11-20T01:57:53;101016.09;;;7.21;100.00
55757;BME280;41676;44.610;44.078;2022-11-20T02:02:57;101008.72;;;7.04;100.00
55757;BME280;41676;44.610;44.078;2022-11-20T02:07:59;101037.28;;;7.10;100.00
55757;BME280;41676;44.610;44.078;2022-11-20T02:13:01;101005.09;;;6.84;100.00
55757;BME280;41676;44.610;44.078;2022-11-20T02:18:21;100979.91;;;6.59;100.00
55757;BME280;41676;44.610;44.078;2022-11-20T02:23:39;101054.84;;;7.00;100.00
55757;BME280;41676;44.610;44.078;2022-11-20T02:28:40;100990.22;;;6.62;100.00
55757;BME280;41676;44.610;44.078;2022-11-20T02:33:41;101062.28;;;7.06;100.00
55757;BME280;41676;44.610;44.078;2022-11-20T02:38:43;101087.34;;;7.12;100.00
55757;BME280;41676;44.610;44.078;2022-11-20T02:43:53;101078.06;;;7.17;100.00
55757;BME280;41676;44.610;44.078;2022-11-20T02:48:54;101061.38;;;7.17;100.00
55757;BME280;41676;44.610;44.078;2022-11-20T02:53:54;101094.13;;;7.46;100.00
55757;BME280;41676;44.610;44.078;2022-11-20T02:58:55;101088.06;;;7.35;100.00
55757;BME280;41676;44.610;44.078;2022-11-20T03:03:56;101073.97;;;7.24;100.00
55757;BME280;41676;44.610;44.078;2022-11-20T03:08:57;100988.16;;;6.66;100.00
55757;BME280;41676;44.610;44.078;2022-11-20T03:14:02;101008.91;;;6.70;100.00
55757;BME280;41676;44.610;44.078;2022-11-20T03:19:03;101085.56;;;7.12;100.00
55757;BME280;41676;44.610;44.078;2022-11-20T03:24:39;101088.00;;;7.04;100.00
55757;BME280;41676;44.610;44.078;2022-11-20T03:29:39;101096.78;;;6.93;100.00
55757;BME280;41676;44.610;44.078;2022-11-20T03:34:40;101064.38;;;6.59;100.00
55757;BME280;41676;44.610;44.078;2022-11-20T03:39:41;101104.28;;;6.77;100.00
55757;BME280;41676;44.610;44.078;2022-11-20T03:44:42;101093.44;;;6.59;100.00
55757;BME280;41676;44.610;44.078;2022-11-20T03:49:42;101105.91;;;6.57;100.00
55757;BME280;41676;44.610;44.078;2022-11-20T03:54:43;101098.84;;;6.46;100.00
55757;BME280;41676;44.610;44.078;2022-11-20T04:12:02;101118.28;;;6.34;100.00
55757;BME280;41676;44.610;44.078;2022-11-20T04:17:03;101106.78;;;6.24;100.00
55757;BME280;41676;44.610;44.078;2022-11-20T04:22:04;101101.88;;;6.19;100.00
55757;BME280;41676;44.610;44.078;2022-11-20T04:27:05;101119.88;;;6.25;100.00
55757;BME280;41676;44.610;44.078;2022-11-20T04:32:06;101052.47;;;5.76;100.00
55757;BME280;41676;44.610;44.078;2022-11-20T04:37:07;101145.63;;;6.44;100.00
55757;BME280;41676;44.610;44.078;2022-11-20T04:42:09;101148.97;;;6.69;100.00
55757;BME280;41676;44.610;44.078;2022-11-20T04:47:28;101114.78;;;6.67;100.00
55757;BME280;41676;44.610;44.078;2022-11-20T04:52:29;101165.41;;;7.16;100.00
55757;BME280;41676;44.610;44.078;2022-11-20T04:57:30;101175.09;;;7.47;100.00
55757;BME280;41676;44.610;44.078;2022-11-20T05:02:31;101176.09;;;7.67;100.00
55757;BME280;41676;44.610;44.078;2022-11-20T05:07:32;101174.81;;;7.83;100.00
55757;BME280;41676;44.610;44.078;2022-11-20T05:12:33;101158.63;;;7.76;100.00
55757;BME280;41676;44.610;44.078;2022-11-20T05:17:33;101152.84;;;7.92;100.00
55757;BME280;41676;44.610;44.078;2022-11-20T05:22:34;101189.00;;;8.33;100.00
55757;BME280;41676;44.610;44.078;2022-11-20T05:27:35;101186.06;;;8.57;100.00
55757;BME280;41676;44.610;44.078;2022-11-20T05:32:35;101098.69;;;8.27;100.00
55757;BME280;41676;44.610;44.078;2022-11-20T05:37:36;101173.63;;;8.98;100.00
55757;BME280;41676;44.610;44.078;2022-11-20T05:42:37;101181.84;;;9.24;100.00
55757;BME280;41676;44.610;44.078;2022-11-20T05:47:38;101112.66;;;8.98;100.00
55757;BME280;41676;44.610;44.078;2022-11-20T05:52:39;101157.44;;;9.50;100.00
55757;BME280;41676;44.610;44.078;2022-11-20T05:57:40;101164.41;;;9.60;100.00
55757;BME280;41676;44.610;44.078;2022-11-20T06:02:41;101133.25;;;9.63;100.00
55757;BME280;41676;44.610;44.078;2022-11-20T06:07:42;101137.09;;;9.97;100.00
55757;BME280;41676;44.610;44.078;2022-11-20T06:17:54;101143.94;;;10.65;100.00
55757;BME280;41676;44.610;44.078;2022-11-20T06:22:55;101162.28;;;11.04;100.00
55757;BME280;41676;44.610;44.078;2022-11-20T06:27:56;101078.75;;;10.88;100.00
55757;BME280;41676;44.610;44.078;2022-11-20T06:32:57;101140.44;;;11.72;100.00
55757;BME280;41676;44.610;44.078;2022-11-20T06:37:57;101153.59;;;11.99;100.00
55757;BME280;41676;44.610;44.078;2022-11-20T06:42:58;101153.22;;;12.12;100.00
55757;BME280;41676;44.610;44.078;2022-11-20T06:54:33;101135.31;;;12.81;99.46
55757;BME280;41676;44.610;44.078;2022-11-20T06:59:33;101145.34;;;12.95;99.94
55757;BME280;41676;44.610;44.078;2022-11-20T07:04:34;101148.69;;;13.06;98.65
55757;BME280;41676;44.610;44.078;2022-11-20T07:09:35;101140.88;;;13.20;97.48
55757;BME280;41676;44.610;44.078;2022-11-20T07:14:36;101143.75;;;13.43;96.27
55757;BME280;41676;44.610;44.078;2022-11-20T07:19:36;101156.41;;;13.82;94.94
55757;BME280;41676;44.610;44.078;2022-11-20T07:30:52;101154.97;;;14.27;91.85
55757;BME280;41676;44.610;44.078;2022-11-20T07:35:53;101134.06;;;14.31;92.47
55757;BME280;41676;44.610;44.078;2022-11-20T07:40:55;101147.00;;;14.58;92.05
55757;BME280;41676;44.610;44.078;2022-11-20T07:45:57;101117.22;;;14.61;90.86
55757;BME280;41676;44.610;44.078;2022-11-20T07:50:58;101055.66;;;14.38;89.87
55757;BME280;41676;44.610;44.078;2022-11-20T08:02:14;101148.31;;;15.40;88.71
55757;BME280;41676;44.610;44.078;2022-11-20T08:07:15;101132.75;;;15.58;87.76
55757;BME280;41676;44.610;44.078;2022-11-20T08:12:20;101142.72;;;15.87;85.19
55757;BME280;41676;44.610;44.078;2022-11-20T08:17:40;101111.59;;;16.01;85.93
55757;BME280;41676;44.610;44.078;2022-11-20T08:22:40;101104.91;;;16.27;84.75
55757;BME280;41676;44.610;44.078;2022-11-20T08:27:41;101123.28;;;16.44;83.81
55757;BME280;41676;44.610;44.078;2022-11-20T08:38:57;101095.13;;;16.70;81.93
55757;BME280;41676;44.610;44.078;2022-11-20T08:44:17;101097.06;;;16.98;79.34
55757;BME280;41676;44.610;44.078;2022-11-20T08:49:18;101085.72;;;17.17;80.69
55757;BME280;41676;44.610;44.078;2022-11-20T08:54:19;101081.16;;;17.18;80.02
55757;BME280;41676;44.610;44.078;2022-11-20T08:59:22;101073.13;;;17.46;79.51
55757;BME280;41676;44.610;44.078;2022-11-20T09:04:37;100995.75;;;17.34;77.02
55757;BME280;41676;44.610;44.078;2022-11-20T09:09:53;101067.84;;;17.87;76.38
55757;BME280;41676;44.610;44.078;2022-11-20T09:14:54;101063.63;;;18.13;77.30
55757;BME280;41676;44.610;44.078;2022-11-20T09:19:55;101023.06;;;18.01;76.23
55757;BME280;41676;44.610;44.078;2022-11-20T09:31:06;101077.81;;;18.48;73.53
55757;BME280;41676;44.610;44.078;2022-11-20T09:36:07;101003.22;;;18.15;74.18
55757;BME280;41676;44.610;44.078;2022-11-20T09:41:42;101050.09;;;18.54;73.08
55757;BME280;41676;44.610;44.078;2022-11-20T09:58:02;101062.97;;;18.65;73.07
55757;BME280;41676;44.610;44.078;2022-11-20T10:03:13;101065.09;;;18.77;72.32
55757;BME280;41676;44.610;44.078;2022-11-20T10:08:27;101053.09;;;18.86;71.99
55757;BME280;41676;44.610;44.078;2022-11-20T10:29:19;101048.28;;;18.61;72.33
55757;BME280;41676;44.610;44.078;2022-11-20T10:34:47;101034.44;;;18.84;72.13
55757;BME280;41676;44.610;44.078;2022-11-20T10:45:34;101042.75;;;18.96;71.00
55757;BME280;41676;44.610;44.078;2022-11-20T10:50:47;101016.25;;;18.86;71.29
55757;BME280;41676;44.610;44.078;2022-11-20T10:56:00;101029.91;;;18.98;70.88
55757;BME280;41676;44.610;44.078;2022-11-20T11:12:42;101017.88;;;18.87;69.83
55757;BME280;41676;44.610;44.078;2022-11-20T11:17:47;100845.75;;;17.79;70.36
55757;BME280;41676;44.610;44.078;2022-11-20T11:22:58;101023.06;;;19.02;71.52
55757;BME280;41676;44.610;44.078;2022-11-20T11:28:21;101005.06;;;19.03;68.30
55757;BME280;41676;44.610;44.078;2022-11-20T11:33:24;100986.00;;;18.98;68.05
55757;BME280;41676;44.610;44.078;2022-11-20T11:38:40;101016.22;;;19.26;67.08
55757;BME280;41676;44.610;44.078;2022-11-20T11:44:19;101013.53;;;19.39;66.30
55757;BME280;41676;44.610;44.078;2022-11-20T11:49:39;100939.63;;;18.89;68.33
55757;BME280;41676;44.610;44.078;2022-11-20T11:55:02;100917.88;;;18.77;66.03
55757;BME280;41676;44.610;44.078;2022-11-20T12:00:09;101001.13;;;19.19;67.20
55757;BME280;41676;44.610;44.078;2022-11-20T12:15:41;100988.47;;;18.73;67.62
55757;BME280;41676;44.610;44.078;2022-11-20T12:32:19;100977.94;;;18.03;70.96
55757;BME280;41676;44.610;44.078;2022-11-20T12:54:44;101002.31;;;17.53;72.94
55757;BME280;41676;44.610;44.078;2022-11-20T13:10:37;101001.53;;;17.03;74.13
55757;BME280;41676;44.610;44.078;2022-11-20T13:20:58;101005.16;;;16.74;75.62
55757;BME280;41676;44.610;44.078;2022-11-20T13:26:20;100988.38;;;16.44;76.61
55757;BME280;41676;44.610;44.078;2022-11-20T13:31:33;100860.63;;;15.42;77.39
55757;BME280;41676;44.610;44.078;2022-11-20T13:36:35;100906.88;;;15.51;78.20
55757;BME280;41676;44.610;44.078;2022-11-20T13:41:37;100907.34;;;15.25;78.70
55757;BME280;41676;44.610;44.078;2022-11-20T13:46:43;101007.81;;;15.50;79.80
55757;BME280;41676;44.610;44.078;2022-11-20T13:51:49;101006.22;;;15.26;79.91
55757;BME280;41676;44.610;44.078;2022-11-20T14:01:51;101003.19;;;14.69;81.53
55757;BME280;41676;44.610;44.078;2022-11-20T14:06:54;101000.81;;;14.51;82.72
55757;BME280;41676;44.610;44.078;2022-11-20T14:11:55;100924.00;;;13.90;83.46
55757;BME280;41676;44.610;44.078;2022-11-20T14:17:23;100994.00;;;14.09;86.15
55757;BME280;41676;44.610;44.078;2022-11-20T14:22:26;100991.09;;;13.96;85.23
55757;BME280;41676;44.610;44.078;2022-11-20T14:27:27;100979.81;;;13.85;85.40
55757;BME280;41676;44.610;44.078;2022-11-20T14:32:30;100908.69;;;13.45;85.62
55757;BME280;41676;44.610;44.078;2022-11-20T14:37:33;100911.44;;;13.29;85.79
55757;BME280;41676;44.610;44.078;2022-11-20T14:42:36;100956.41;;;13.40;86.30
55757;BME280;41676;44.610;44.078;2022-11-20T14:47:37;100975.09;;;13.40;86.72
55757;BME280;41676;44.610;44.078;2022-11-20T14:52:38;100988.97;;;13.43;87.11
55757;BME280;41676;44.610;44.078;2022-11-20T14:57:39;100961.09;;;13.21;87.60
55757;BME280;41676;44.610;44.078;2022-11-20T15:02:42;100881.88;;;12.58;87.63
55757;BME280;41676;44.610;44.078;2022-11-20T15:07:48;100879.91;;;12.36;89.21
55757;BME280;41676;44.610;44.078;2022-11-20T15:17:51;100954.16;;;12.79;89.36
55757;BME280;41676;44.610;44.078;2022-11-20T15:22:52;100954.84;;;12.82;89.62
55757;BME280;41676;44.610;44.078;2022-11-20T15:27:55;100940.69;;;12.73;90.78
55757;BME280;41676;44.610;44.078;2022-11-20T15:32:57;100961.00;;;12.74;90.46
55757;BME280;41676;44.610;44.078;2022-11-20T15:37:57;100954.00;;;12.65;91.20
55757;BME280;41676;44.610;44.078;2022-11-20T15:42:58;100951.19;;;12.66;91.46
55757;BME280;41676;44.610;44.078;2022-11-20T15:48:16;100867.41;;;12.12;92.91
55757;BME280;41676;44.610;44.078;2022-11-20T15:53:17;100771.63;;;11.53;91.59
55757;BME280;41676;44.610;44.078;2022-11-20T15:58:20;100957.50;;;12.57;92.87
55757;BME280;41676;44.610;44.078;2022-11-20T16:03:23;100945.03;;;12.66;92.19
55757;BME280;41676;44.610;44.078;2022-11-20T16:08:24;100872.72;;;12.28;92.61
55757;BME280;41676;44.610;44.078;2022-11-20T16:13:25;100937.00;;;12.74;92.96
55757;BME280;41676;44.610;44.078;2022-11-20T16:18:45;100908.19;;;12.53;92.88
55757;BME280;41676;44.610;44.078;2022-11-20T16:23:46;100938.00;;;12.73;92.72
55757;BME280;41676;44.610;44.078;2022-11-20T16:28:47;100889.56;;;12.37;92.97
55757;BME280;41676;44.610;44.078;2022-11-20T16:33:55;100928.50;;;12.62;95.34
55757;BME280;41676;44.610;44.078;2022-11-20T16:39:02;100932.84;;;12.71;94.97
55757;BME280;41676;44.610;44.078;2022-11-20T16:44:08;100946.16;;;12.96;94.06
55757;BME280;41676;44.610;44.078;2022-11-20T16:49:13;100957.81;;;13.03;94.67
55757;BME280;41676;44.610;44.078;2022-11-20T16:54:14;100846.41;;;12.41;93.80
55757;BME280;41676;44.610;44.078;2022-11-20T16:59:15;100932.16;;;12.94;93.73
55757;BME280;41676;44.610;44.078;2022-11-20T17:04:16;100935.84;;;12.68;94.25
55757;BME280;41676;44.610;44.078;2022-11-20T17:15:00;100938.84;;;12.65;93.90
55757;BME280;41676;44.610;44.078;2022-11-20T17:20:01;100856.03;;;11.93;94.28
55757;BME280;41676;44.610;44.078;2022-11-20T17:25:02;100921.34;;;12.22;95.13
55757;BME280;41676;44.610;44.078;2022-11-20T17:30:04;100938.16;;;12.30;95.38
55757;BME280;41676;44.610;44.078;2022-11-20T17:35:05;100900.16;;;12.04;95.63
55757;BME280;41676;44.610;44.078;2022-11-20T17:40:06;100924.84;;;12.22;95.85
55757;BME280;41676;44.610;44.078;2022-11-20T17:45:07;100824.50;;;11.56;95.62
55757;BME280;41676;44.610;44.078;2022-11-20T17:50:32;100915.81;;;12.07;98.42
55757;BME280;41676;44.610;44.078;2022-11-20T17:55:33;100883.84;;;11.91;96.13
55757;BME280;41676;44.610;44.078;2022-11-20T18:00:53;100883.19;;;11.97;96.35
55757;BME280;41676;44.610;44.078;2022-11-20T18:05:54;100855.50;;;11.81;96.51
55757;BME280;41676;44.610;44.078;2022-11-20T18:17:12;100889.16;;;11.99;97.61
55757;BME280;41676;44.610;44.078;2022-11-20T18:22:15;100888.34;;;11.98;97.30
55757;BME280;41676;44.610;44.078;2022-11-20T18:27:18;100809.03;;;11.51;97.68
55757;BME280;41676;44.610;44.078;2022-11-20T18:32:20;100893.69;;;12.06;97.34
55757;BME280;41676;44.610;44.078;2022-11-20T18:37:21;100893.50;;;12.08;97.10
55757;BME280;41676;44.610;44.078;2022-11-20T18:42:22;100886.69;;;12.05;97.72
55757;BME280;41676;44.610;44.078;2022-11-20T18:47:41;100879.50;;;11.90;97.66
55757;BME280;41676;44.610;44.078;2022-11-20T18:52:45;100882.44;;;11.78;98.54
55757;BME280;41676;44.610;44.078;2022-11-20T18:57:47;100783.81;;;11.13;97.92
55757;BME280;41676;44.610;44.078;2022-11-20T19:02:52;100877.44;;;11.67;99.02
55757;BME280;41676;44.610;44.078;2022-11-20T19:07:53;100707.69;;;10.61;98.65
55757;BME280;41676;44.610;44.078;2022-11-20T19:12:54;100869.44;;;11.67;99.45
55757;BME280;41676;44.610;44.078;2022-11-20T19:17:55;100862.66;;;11.81;99.33
55757;BME280;41676;44.610;44.078;2022-11-20T19:22:57;100841.69;;;11.70;99.36
55757;BME280;41676;44.610;44.078;2022-11-20T19:27:58;100865.31;;;11.81;99.07
55757;BME280;41676;44.610;44.078;2022-11-20T19:32:59;100838.88;;;11.79;99.17
55757;BME280;41676;44.610;44.078;2022-11-20T19:38:00;100850.41;;;11.88;99.23
55757;BME280;41676;44.610;44.078;2022-11-20T19:43:00;100836.72;;;11.83;98.85
55757;BME280;41676;44.610;44.078;2022-11-20T19:48:01;100811.91;;;11.74;99.53
55757;BME280;41676;44.610;44.078;2022-11-20T19:53:02;100835.25;;;11.88;99.51
55757;BME280;41676;44.610;44.078;2022-11-20T19:58:03;100775.97;;;11.62;99.67
55757;BME280;41676;44.610;44.078;2022-11-20T20:03:40;100832.59;;;11.97;100.00
55757;BME280;41676;44.610;44.078;2022-11-20T20:08:41;100831.19;;;11.84;100.00
55757;BME280;41676;44.610;44.078;2022-11-20T20:13:43;100829.19;;;11.78;100.00
55757;BME280;41676;44.610;44.078;2022-11-20T20:19:15;100835.91;;;11.99;100.00
55757;BME280;41676;44.610;44.078;2022-11-20T20:24:16;100818.03;;;11.66;100.00
55757;BME280;41676;44.610;44.078;2022-11-20T20:29:17;100836.16;;;11.55;100.00
55757;BME280;41676;44.610;44.078;2022-11-20T20:34:19;100741.50;;;10.85;100.00
55757;BME280;41676;44.610;44.078;2022-11-20T20:39:20;100830.44;;;11.41;100.00
55757;BME280;41676;44.610;44.078;2022-11-20T20:44:21;100828.28;;;11.45;100.00
55757;BME280;41676;44.610;44.078;2022-11-20T20:49:40;100825.50;;;11.55;100.00
55757;BME280;41676;44.610;44.078;2022-11-20T20:54:42;100824.19;;;11.59;100.00
55757;BME280;41676;44.610;44.078;2022-11-20T20:59:43;100801.69;;;11.45;100.00
55757;BME280;41676;44.610;44.078;2022-11-20T21:04:44;100795.50;;;11.28;100.00
55757;BME280;41676;44.610;44.078;2022-11-20T21:09:46;100819.41;;;11.20;100.00
55757;BME280;41676;44.610;44.078;2022-11-20T21:14:47;100816.06;;;11.10;100.00
55757;BME280;41676;44.610;44.078;2022-11-20T21:19:48;100772.50;;;10.68;100.00
55757;BME280;41676;44.610;44.078;2022-11-20T21:30:36;100805.69;;;10.38;100.00
55757;BME280;41676;44.610;44.078;2022-11-20T21:35:36;100803.38;;;10.25;100.00
55757;BME280;41676;44.610;44.078;2022-11-20T21:40:37;100717.19;;;9.68;100.00
55757;BME280;41676;44.610;44.078;2022-11-20T21:45:38;100728.31;;;9.71;100.00
55757;BME280;41676;44.610;44.078;2022-11-20T21:50:39;100778.56;;;10.09;100.00
55757;BME280;41676;44.610;44.078;2022-11-20T21:55:40;100806.22;;;10.24;100.00
55757;BME280;41676;44.610;44.078;2022-11-20T22:06:32;100833.06;;;10.21;100.00
55757;BME280;41676;44.610;44.078;2022-11-20T22:11:33;100789.22;;;9.99;100.00
55757;BME280;41676;44.610;44.078;2022-11-20T22:16:35;100718.53;;;9.36;100.00
55757;BME280;41676;44.610;44.078;2022-11-20T22:27:51;100761.53;;;9.57;100.00
55757;BME280;41676;44.610;44.078;2022-11-20T22:32:52;100795.84;;;9.77;100.00
55757;BME280;41676;44.610;44.078;2022-11-20T22:37:55;100779.78;;;9.60;100.00
55757;BME280;41676;44.610;44.078;2022-11-20T22:42:55;100784.22;;;9.42;100.00
55757;BME280;41676;44.610;44.078;2022-11-20T22:47:56;100787.78;;;9.33;100.00
55757;BME280;41676;44.610;44.078;2022-11-20T22:52:57;100755.59;;;9.00;100.00
55757;BME280;41676;44.610;44.078;2022-11-20T22:57:58;100699.59;;;8.67;100.00
55757;BME280;41676;44.610;44.078;2022-11-20T23:02:59;100785.38;;;9.12;100.00
55757;BME280;41676;44.610;44.078;2022-11-20T23:07:59;100795.56;;;9.17;100.00
55757;BME280;41676;44.610;44.078;2022-11-20T23:13:00;100790.00;;;9.10;100.00
55757;BME280;41676;44.610;44.078;2022-11-20T23:18:01;100753.44;;;8.86;100.00
55757;BME280;41676;44.610;44.078;2022-11-20T23:23:02;100719.84;;;8.49;100.00
55757;BME280;41676;44.610;44.078;2022-11-20T23:28:02;100729.50;;;8.50;100.00
55757;BME280;41676;44.610;44.078;2022-11-20T23:33:26;100795.56;;;8.89;100.00
55757;BME280;41676;44.610;44.078;2022-11-20T23:38:27;100769.88;;;8.62;100.00
55757;BME280;41676;44.610;44.078;2022-11-20T23:43:28;100700.44;;;8.21;100.00
55757;BME280;41676;44.610;44.078;2022-11-20T23:48:31;100777.31;;;8.76;100.00
55757;BME280;41676;44.610;44.078;2022-11-20T23:53:33;100701.38;;;8.30;100.00
55757;BME280;41676;44.610;44.078;2022-11-20T23:58:36;100770.25;;;8.67;100.00
